createdAt,value
2023-05-01T00:00:54.526Z,1.67
2023-05-01T00:01:58.459Z,1.23
2023-05-01T00:03:01.034Z,2.97
2023-05-01T00:04:04.988Z,2.33
2023-05-01T00:05:08.984Z,1.63
2023-05-01T00:06:13.670Z,1.85
2023-05-01T00:07:16.861Z,1.40
2023-05-01T00:08:20.712Z,1.33
2023-05-01T00:09:23.832Z,1.63
2023-05-01T00:10:29.271Z,2.20
2023-05-01T00:11:32.093Z,1.73
2023-05-01T00:12:35.905Z,1.40
2023-05-01T00:13:38.723Z,1.67
2023-05-01T00:14:42.253Z,1.70
2023-05-01T00:15:44.818Z,1.30
2023-05-01T00:16:49.680Z,1.38
2023-05-01T00:17:54.409Z,2.20
2023-05-01T00:18:58.258Z,1.10
2023-05-01T00:20:01.490Z,1.35
2023-05-01T00:21:06.055Z,1.35
2023-05-01T00:22:09.238Z,1.23
2023-05-01T00:23:13.154Z,1.15
2023-05-01T00:24:17.056Z,2.20
2023-05-01T00:25:21.078Z,1.70
2023-05-01T00:26:29.997Z,2.13
2023-05-01T00:27:33.886Z,1.15
2023-05-01T00:28:36.764Z,1.90
2023-05-01T00:29:40.360Z,1.85
2023-05-01T00:30:43.069Z,1.45
2023-05-01T00:31:47.779Z,1.50
2023-05-01T00:32:50.786Z,1.88
2023-05-01T00:33:54.769Z,1.35
2023-05-01T00:34:59.087Z,1.42
2023-05-01T00:36:01.551Z,1.60
2023-05-01T00:37:05.452Z,1.40
2023-05-01T00:38:08.531Z,1.10
2023-05-01T00:39:12.429Z,1.95
2023-05-01T00:40:15.212Z,2.25
2023-05-01T00:41:18.992Z,2.03
2023-05-01T00:42:23.354Z,1.83
2023-05-01T00:43:27.039Z,1.98
2023-05-01T00:44:29.720Z,2.53
2023-05-01T00:45:33.697Z,1.80
2023-05-01T00:46:36.844Z,1.30
2023-05-01T00:47:41.542Z,0.90
2023-05-01T00:48:45.076Z,1.90
2023-05-01T00:49:50.929Z,1.98
2023-05-01T00:50:54.528Z,1.27
2023-05-01T00:51:58.814Z,1.42
2023-05-01T00:53:02.537Z,1.50
2023-05-01T00:54:07.365Z,1.13
2023-05-01T00:55:11.247Z,1.20
2023-05-01T00:56:16.373Z,1.63
2023-05-01T00:57:20.270Z,1.63
2023-05-01T00:58:25.467Z,1.73
2023-05-01T00:59:29.305Z,1.20
2023-05-01T01:00:33.561Z,2.03
2023-05-01T01:01:38.548Z,2.20
2023-05-01T01:02:43.886Z,1.38
2023-05-01T01:03:47.249Z,1.58
2023-05-01T01:04:51.699Z,1.88
2023-05-01T01:05:59.493Z,1.13
2023-05-01T01:07:11.841Z,1.20
2023-05-01T01:08:20.912Z,1.30
2023-05-01T01:09:37.783Z,1.52
2023-05-01T01:10:48.163Z,2.15
2023-05-01T01:12:02.853Z,1.90
2023-05-01T01:13:15.859Z,2.85
2023-05-01T01:14:25.596Z,1.48
2023-05-01T01:15:35.869Z,1.90
2023-05-01T01:16:47.149Z,1.23
2023-05-01T01:17:57.673Z,2.05
2023-05-01T01:19:12.594Z,2.38
2023-05-01T01:20:33.588Z,1.90
2023-05-01T01:21:41.005Z,1.70
2023-05-01T01:22:47.735Z,1.48
2023-05-01T01:24:13.774Z,2.00
2023-05-01T01:25:50.934Z,2.58
2023-05-01T01:27:21.389Z,1.30
2023-05-01T01:29:04.974Z,1.70
2023-05-01T01:30:38.614Z,1.65
2023-05-01T01:31:54.207Z,1.50
2023-05-01T01:33:13.248Z,2.63
2023-05-01T01:34:22.792Z,2.70
2023-05-01T01:35:27.495Z,3.17
2023-05-01T01:36:44.821Z,1.98
2023-05-01T01:37:52.371Z,1.83
2023-05-01T01:39:05.014Z,1.85
2023-05-01T01:40:13.095Z,2.42
2023-05-01T01:41:24.709Z,1.83
2023-05-01T01:42:33.101Z,1.83
2023-05-01T01:43:41.136Z,1.55
2023-05-01T01:44:50.978Z,5.88
2023-05-01T01:45:59.594Z,1.97
2023-05-01T01:47:07.476Z,1.63
2023-05-01T01:48:13.510Z,2.22
2023-05-01T01:49:23.227Z,2.53
2023-05-01T01:50:28.862Z,2.60
2023-05-01T01:51:33.553Z,3.90
2023-05-01T01:52:38.980Z,3.03
2023-05-01T01:53:46.921Z,1.52
2023-05-01T01:54:53.584Z,2.25
2023-05-01T01:55:58.602Z,1.70
2023-05-01T01:57:04.698Z,3.23
2023-05-01T01:58:10.896Z,1.67
2023-05-01T01:59:17.367Z,3.58
2023-05-01T02:00:22.438Z,2.35
2023-05-01T02:01:26.883Z,2.25
2023-05-01T02:02:31.490Z,2.70
2023-05-01T02:03:35.931Z,2.67
2023-05-01T02:04:44.480Z,2.58
2023-05-01T02:05:49.785Z,3.00
2023-05-01T02:06:53.923Z,2.65
2023-05-01T02:07:59.145Z,2.50
2023-05-01T02:09:04.025Z,2.55
2023-05-01T02:10:10.282Z,1.85
2023-05-01T02:11:16.018Z,2.30
2023-05-01T02:12:21.344Z,2.20
2023-05-01T02:13:25.098Z,2.10
2023-05-01T02:14:29.341Z,2.38
2023-05-01T02:15:33.042Z,3.75
2023-05-01T02:16:38.029Z,2.33
2023-05-01T02:17:43.479Z,1.98
2023-05-01T02:18:47.156Z,2.67
2023-05-01T02:19:55.578Z,2.22
2023-05-01T02:21:00.184Z,3.63
2023-05-01T02:22:06.144Z,3.22
2023-05-01T02:23:10.460Z,3.35
2023-05-01T02:24:14.873Z,2.25
2023-05-01T02:25:17.708Z,2.75
2023-05-01T02:26:28.036Z,4.28
2023-05-01T02:27:33.233Z,2.67
2023-05-01T02:28:41.666Z,1.98
2023-05-01T02:29:44.520Z,2.97
2023-05-01T02:30:48.707Z,2.40
2023-05-01T02:31:51.497Z,1.80
2023-05-01T02:32:55.649Z,2.00
2023-05-01T02:33:58.523Z,2.08
2023-05-01T02:35:03.480Z,1.85
2023-05-01T02:36:06.332Z,2.20
2023-05-01T02:37:12.197Z,2.50
2023-05-01T02:38:16.339Z,2.38
2023-05-01T02:39:20.254Z,4.85
2023-05-01T02:40:23.063Z,1.90
2023-05-01T02:41:27.907Z,2.45
2023-05-01T02:42:31.965Z,2.58
2023-05-01T02:43:37.243Z,2.88
2023-05-01T02:44:43.471Z,3.50
2023-05-01T02:45:48.468Z,6.47
2023-05-01T02:46:53.146Z,2.60
2023-05-01T02:48:00.124Z,1.80
2023-05-01T02:49:05.508Z,2.10
2023-05-01T02:50:11.582Z,2.55
2023-05-01T02:51:15.772Z,3.93
2023-05-01T02:52:20.394Z,2.00
2023-05-01T02:53:24.409Z,1.50
2023-05-01T02:54:27.358Z,1.95
2023-05-01T02:55:31.326Z,1.70
2023-05-01T02:56:34.639Z,2.28
2023-05-01T02:57:38.244Z,1.63
2023-05-01T02:58:41.593Z,2.05
2023-05-01T02:59:45.903Z,2.38
2023-05-01T03:00:50.306Z,2.10
2023-05-01T03:01:54.453Z,3.00
2023-05-01T03:02:57.465Z,3.92
2023-05-01T03:04:01.726Z,2.25
2023-05-01T03:05:05.133Z,1.90
2023-05-01T03:06:10.788Z,3.15
2023-05-01T03:07:13.977Z,2.38
2023-05-01T03:08:17.738Z,1.70
2023-05-01T03:09:20.823Z,1.67
2023-05-01T03:10:24.714Z,2.30
2023-05-01T03:11:27.869Z,2.15
2023-05-01T03:12:32.200Z,2.73
2023-05-01T03:13:35.176Z,1.77
2023-05-01T03:14:39.144Z,2.35
2023-05-01T03:15:41.682Z,1.33
2023-05-01T03:16:46.213Z,2.10
2023-05-01T03:17:49.022Z,2.35
2023-05-01T03:18:52.988Z,1.67
2023-05-01T03:19:56.523Z,2.60
2023-05-01T03:21:00.477Z,2.85
2023-05-01T03:22:04.799Z,3.33
2023-05-01T03:23:08.598Z,1.50
2023-05-01T03:24:12.112Z,1.50
2023-05-01T03:25:15.853Z,1.83
2023-05-01T03:26:19.509Z,1.60
2023-05-01T03:27:23.483Z,2.08
2023-05-01T03:28:26.024Z,2.47
2023-05-01T03:29:29.812Z,1.60
2023-05-01T03:30:34.610Z,7.43
2023-05-01T03:31:38.459Z,1.52
2023-05-01T03:32:41.222Z,1.60
2023-05-01T03:33:45.094Z,2.90
2023-05-01T03:34:47.972Z,2.45
2023-05-01T03:36:02.330Z,1.65
2023-05-01T03:37:07.853Z,1.70
2023-05-01T03:38:10.666Z,2.05
2023-05-01T03:39:14.532Z,4.55
2023-05-01T03:40:17.128Z,2.08
2023-05-01T03:41:21.616Z,1.92
2023-05-01T03:42:24.697Z,2.28
2023-05-01T03:43:28.435Z,2.70
2023-05-01T03:44:31.182Z,1.57
2023-05-01T03:45:34.747Z,1.70
2023-05-01T03:46:37.432Z,1.92
2023-05-01T03:47:41.598Z,2.05
2023-05-01T03:48:44.630Z,3.58
2023-05-01T03:49:48.179Z,2.42
2023-05-01T03:50:51.357Z,1.75
2023-05-01T03:51:54.957Z,2.28
2023-05-01T03:52:58.892Z,2.75
2023-05-01T03:54:02.993Z,1.50
2023-05-01T03:55:07.812Z,1.70
2023-05-01T03:56:11.983Z,2.65
2023-05-01T03:57:15.070Z,2.85
2023-05-01T03:58:18.743Z,2.03
2023-05-01T03:59:21.355Z,3.15
2023-05-01T04:00:25.224Z,3.35
2023-05-01T04:01:27.943Z,2.33
2023-05-01T04:02:31.831Z,2.22
2023-05-01T04:03:34.714Z,4.18
2023-05-01T04:04:38.674Z,4.47
2023-05-01T04:05:41.370Z,4.93
2023-05-01T04:06:45.337Z,3.65
2023-05-01T04:07:48.424Z,2.70
2023-05-01T04:08:53.547Z,2.35
2023-05-01T04:09:56.274Z,2.85
2023-05-01T04:11:00.314Z,4.28
2023-05-01T04:12:03.483Z,2.80
2023-05-01T04:13:07.288Z,3.50
2023-05-01T04:14:09.861Z,3.90
2023-05-01T04:15:15.560Z,3.10
2023-05-01T04:16:18.399Z,2.70
2023-05-01T04:17:22.225Z,2.33
2023-05-01T04:18:24.721Z,2.40
2023-05-01T04:19:28.272Z,2.78
2023-05-01T04:20:30.774Z,4.63
2023-05-01T04:21:34.781Z,2.83
2023-05-01T04:22:37.359Z,3.42
2023-05-01T04:23:40.942Z,4.10
2023-05-01T04:24:45.142Z,2.72
2023-05-01T04:25:48.846Z,3.75
2023-05-01T04:26:51.501Z,2.57
2023-05-01T04:27:55.609Z,2.92
2023-05-01T04:28:58.624Z,5.15
2023-05-01T04:30:02.435Z,6.75
2023-05-01T04:31:05.385Z,3.58
2023-05-01T04:32:09.457Z,3.00
2023-05-01T04:33:12.337Z,1.98
2023-05-01T04:34:16.736Z,2.30
2023-05-01T04:35:19.768Z,3.00
2023-05-01T04:36:23.590Z,3.58
2023-05-01T04:37:26.380Z,3.40
2023-05-01T04:38:31.346Z,3.75
2023-05-01T04:39:34.943Z,3.03
2023-05-01T04:40:40.754Z,2.60
2023-05-01T04:41:43.463Z,2.45
2023-05-01T04:42:47.564Z,3.15
2023-05-01T04:43:50.282Z,2.80
2023-05-01T04:44:54.591Z,2.92
2023-05-01T04:45:57.388Z,4.40
2023-05-01T04:47:01.152Z,4.10
2023-05-01T04:48:04.405Z,3.13
2023-05-01T04:49:08.291Z,3.17
2023-05-01T04:50:12.093Z,2.30
2023-05-01T04:51:16.154Z,3.83
2023-05-01T04:52:18.799Z,3.40
2023-05-01T04:53:22.606Z,3.28
2023-05-01T04:54:25.824Z,2.63
2023-05-01T04:55:31.121Z,4.53
2023-05-01T04:56:35.820Z,2.88
2023-05-01T04:57:39.676Z,2.90
2023-05-01T04:58:42.760Z,2.60
2023-05-01T04:59:46.959Z,2.58
2023-05-01T05:00:49.678Z,3.08
2023-05-01T05:01:53.286Z,2.40
2023-05-01T05:02:56.191Z,2.03
2023-05-01T05:04:00.292Z,4.45
2023-05-01T05:05:03.282Z,4.10
2023-05-01T05:06:07.395Z,2.95
2023-05-01T05:07:10.309Z,3.25
2023-05-01T05:08:14.252Z,2.33
2023-05-01T05:09:18.058Z,3.00
2023-05-01T05:10:23.743Z,4.43
2023-05-01T05:11:26.569Z,2.97
2023-05-01T05:12:31.446Z,3.22
2023-05-01T05:13:33.946Z,2.72
2023-05-01T05:14:37.826Z,2.22
2023-05-01T05:15:41.654Z,2.38
2023-05-01T05:16:45.979Z,3.40
2023-05-01T05:17:48.949Z,3.10
2023-05-01T05:18:52.565Z,2.25
2023-05-01T05:19:55.385Z,3.10
2023-05-01T05:21:00.118Z,4.13
2023-05-01T05:22:03.353Z,4.70
2023-05-01T05:23:08.407Z,3.50
2023-05-01T05:24:12.599Z,3.10
2023-05-01T05:25:16.364Z,3.63
2023-05-01T05:26:19.738Z,4.10
2023-05-01T05:27:25.159Z,3.40
2023-05-01T05:28:30.174Z,2.67
2023-05-01T05:29:33.133Z,3.92
2023-05-01T05:30:36.599Z,3.00
2023-05-01T05:31:38.919Z,2.97
2023-05-01T05:32:42.410Z,3.42
2023-05-01T05:33:44.926Z,5.15
2023-05-01T05:34:48.514Z,3.13
2023-05-01T05:35:50.755Z,2.72
2023-05-01T05:36:53.945Z,2.63
2023-05-01T05:37:56.280Z,4.05
2023-05-01T05:39:00.892Z,4.72
2023-05-01T05:40:03.258Z,2.22
2023-05-01T05:41:08.088Z,2.37
2023-05-01T05:42:11.486Z,3.63
2023-05-01T05:43:14.908Z,4.60
2023-05-01T05:44:19.630Z,2.58
2023-05-01T05:45:23.595Z,4.15
2023-05-01T05:46:26.919Z,2.20
2023-05-01T05:47:31.767Z,2.70
2023-05-01T05:48:35.094Z,5.00
2023-05-01T05:49:37.494Z,2.33
2023-05-01T05:50:41.038Z,2.55
2023-05-01T05:51:43.503Z,3.07
2023-05-01T05:52:47.076Z,4.63
2023-05-01T05:53:49.424Z,3.17
2023-05-01T05:54:52.691Z,2.53
2023-05-01T05:55:55.740Z,2.47
2023-05-01T05:56:59.270Z,2.05
2023-05-01T05:58:02.040Z,4.43
2023-05-01T05:59:06.638Z,3.92
2023-05-01T06:00:13.517Z,3.58
2023-05-01T06:01:16.875Z,3.67
2023-05-01T06:02:19.747Z,4.47
2023-05-01T06:03:23.881Z,2.70
2023-05-01T06:04:26.668Z,4.80
2023-05-01T06:05:30.146Z,5.65
2023-05-01T06:06:35.244Z,9.25
2023-05-01T06:07:37.718Z,7.55
2023-05-01T06:08:41.409Z,9.02
2023-05-01T06:09:43.673Z,4.82
2023-05-01T06:10:47.193Z,7.57
2023-05-01T06:11:50.259Z,5.40
2023-05-01T06:13:03.167Z,5.63
2023-05-01T06:14:15.339Z,4.53
2023-05-01T06:15:19.033Z,5.13
2023-05-01T06:16:22.428Z,5.15
2023-05-01T06:17:25.590Z,4.65
2023-05-01T06:18:30.470Z,3.60
2023-05-01T06:19:34.989Z,3.40
2023-05-01T06:20:38.798Z,3.90
2023-05-01T06:21:42.263Z,2.83
2023-05-01T06:22:46.867Z,5.60
2023-05-01T06:23:49.740Z,2.40
2023-05-01T06:24:52.985Z,4.15
2023-05-01T06:25:56.033Z,3.13
2023-05-01T06:27:01.331Z,3.53
2023-05-01T06:28:05.035Z,3.42
2023-05-01T06:29:08.521Z,2.40
2023-05-01T06:30:12.855Z,5.38
2023-05-01T06:31:16.640Z,2.53
2023-05-01T06:32:20.028Z,5.32
2023-05-01T06:33:22.721Z,2.70
2023-05-01T06:34:26.844Z,2.60
2023-05-01T06:35:29.104Z,2.85
2023-05-01T06:36:32.669Z,2.67
2023-05-01T06:37:36.446Z,2.22
2023-05-01T06:38:40.728Z,4.72
2023-05-01T06:39:44.066Z,4.45
2023-05-01T06:40:49.309Z,3.53
2023-05-01T06:41:52.853Z,3.35
2023-05-01T06:42:55.410Z,3.10
2023-05-01T06:44:02.984Z,2.47
2023-05-01T06:45:06.533Z,2.23
2023-05-01T06:46:09.929Z,2.30
2023-05-01T06:47:14.202Z,2.15
2023-05-01T06:48:17.806Z,2.88
2023-05-01T06:49:20.290Z,3.03
2023-05-01T06:50:24.488Z,2.88
2023-05-01T06:51:27.817Z,2.45
2023-05-01T06:52:32.136Z,4.03
2023-05-01T06:53:34.991Z,3.08
2023-05-01T06:54:39.093Z,5.38
2023-05-01T06:55:41.527Z,2.23
2023-05-01T06:56:44.862Z,2.63
2023-05-01T06:57:47.368Z,2.20
2023-05-01T06:58:50.741Z,3.40
2023-05-01T06:59:53.015Z,3.72
2023-05-01T07:00:56.597Z,3.92
2023-05-01T07:01:59.959Z,3.60
2023-05-01T07:03:04.286Z,2.92
2023-05-01T07:04:08.141Z,4.82
2023-05-01T07:05:10.661Z,4.03
2023-05-01T07:06:14.253Z,2.47
2023-05-01T07:07:16.463Z,3.00
2023-05-01T07:08:21.015Z,3.75
2023-05-01T07:09:23.470Z,3.80
2023-05-01T07:10:27.366Z,3.30
2023-05-01T07:11:30.077Z,2.75
2023-05-01T07:12:33.843Z,3.00
2023-05-01T07:13:36.519Z,2.63
2023-05-01T07:14:41.676Z,2.67
2023-05-01T07:15:44.053Z,2.10
2023-05-01T07:16:49.484Z,2.07
2023-05-01T07:17:52.588Z,3.42
2023-05-01T07:18:57.453Z,3.65
2023-05-01T07:20:00.769Z,3.55
2023-05-01T07:21:05.338Z,3.28
2023-05-01T07:22:07.585Z,2.65
2023-05-01T07:23:11.788Z,4.00
2023-05-01T07:24:14.327Z,3.13
2023-05-01T07:25:19.315Z,2.35
2023-05-01T07:26:22.906Z,2.20
2023-05-01T07:27:26.582Z,3.93
2023-05-01T07:28:28.938Z,2.20
2023-05-01T07:29:35.479Z,2.97
2023-05-01T07:30:38.026Z,3.35
2023-05-01T07:31:42.250Z,3.30
2023-05-01T07:32:45.333Z,3.20
2023-05-01T07:33:50.334Z,3.80
2023-05-01T07:34:54.915Z,3.10
2023-05-01T07:35:58.795Z,3.17
2023-05-01T07:37:01.125Z,3.85
2023-05-01T07:38:04.689Z,2.33
2023-05-01T07:39:08.131Z,3.75
2023-05-01T07:40:12.550Z,2.83
2023-05-01T07:41:15.033Z,3.22
2023-05-01T07:42:18.484Z,3.15
2023-05-01T07:43:20.947Z,2.65
2023-05-01T07:44:24.629Z,4.03
2023-05-01T07:45:27.024Z,2.00
2023-05-01T07:46:30.987Z,2.33
2023-05-01T07:47:33.733Z,1.80
2023-05-01T07:48:40.324Z,2.30
2023-05-01T07:49:43.650Z,3.80
2023-05-01T07:50:47.435Z,3.72
2023-05-01T07:51:50.843Z,2.70
2023-05-01T07:52:53.732Z,1.90
2023-05-01T07:53:56.994Z,2.58
2023-05-01T07:54:59.412Z,2.72
2023-05-01T07:56:10.246Z,2.45
2023-05-01T07:57:12.722Z,2.40
2023-05-01T07:58:16.850Z,1.73
2023-05-01T07:59:19.141Z,4.07
2023-05-01T08:00:22.690Z,2.05
2023-05-01T08:01:25.776Z,1.88
2023-05-01T08:02:29.708Z,3.30
2023-05-01T08:03:33.271Z,1.67
2023-05-01T08:04:36.802Z,2.40
2023-05-01T08:05:41.447Z,2.00
2023-05-01T08:06:46.480Z,2.30
2023-05-01T08:07:49.803Z,2.72
2023-05-01T08:08:52.028Z,2.17
2023-05-01T08:09:59.173Z,3.60
2023-05-01T08:11:03.414Z,3.75
2023-05-01T08:12:06.986Z,2.70
2023-05-01T08:13:09.241Z,3.00
2023-05-01T08:14:12.578Z,2.08
2023-05-01T08:15:15.999Z,2.30
2023-05-01T08:16:21.984Z,1.83
2023-05-01T08:17:24.650Z,1.30
2023-05-01T08:18:28.791Z,3.08
2023-05-01T08:19:31.516Z,1.70
2023-05-01T08:20:35.282Z,1.70
2023-05-01T08:21:38.737Z,2.42
2023-05-01T08:22:42.608Z,3.95
2023-05-01T08:23:45.932Z,2.17
2023-05-01T08:24:48.509Z,2.85
2023-05-01T08:25:53.177Z,1.38
2023-05-01T08:26:57.286Z,4.00
2023-05-01T08:28:00.855Z,2.75
2023-05-01T08:29:05.633Z,1.83
2023-05-01T08:30:08.977Z,1.60
2023-05-01T08:31:12.668Z,1.60
2023-05-01T08:32:15.572Z,2.47
2023-05-01T08:33:19.329Z,2.25
2023-05-01T08:34:22.898Z,2.05
2023-05-01T08:35:26.936Z,2.58
2023-05-01T08:36:29.912Z,1.67
2023-05-01T08:37:33.726Z,2.00
2023-05-01T08:38:37.900Z,2.03
2023-05-01T08:39:42.117Z,1.60
2023-05-01T08:40:52.538Z,1.98
2023-05-01T08:41:55.788Z,1.93
2023-05-01T08:43:01.663Z,2.25
2023-05-01T08:44:05.167Z,2.45
2023-05-01T08:45:10.304Z,2.78
2023-05-01T08:46:16.329Z,1.55
2023-05-01T08:47:20.233Z,3.55
2023-05-01T08:48:25.573Z,2.42
2023-05-01T08:49:34.322Z,2.00
2023-05-01T08:50:37.146Z,2.22
2023-05-01T08:51:41.294Z,2.83
2023-05-01T08:52:44.702Z,3.10
2023-05-01T08:53:52.249Z,2.00
2023-05-01T08:54:57.434Z,1.70
2023-05-01T08:56:01.965Z,3.55
2023-05-01T08:57:09.658Z,2.75
2023-05-01T08:58:16.129Z,2.38
2023-05-01T08:59:20.721Z,3.03
2023-05-01T09:00:26.413Z,2.22
2023-05-01T09:01:30.016Z,3.10
2023-05-01T09:02:36.277Z,1.90
2023-05-01T09:03:39.191Z,2.57
2023-05-01T09:04:43.458Z,2.00
2023-05-01T09:05:47.245Z,2.22
2023-05-01T09:06:51.490Z,2.33
2023-05-01T09:07:57.088Z,1.98
2023-05-01T09:09:01.191Z,3.28
2023-05-01T09:10:05.681Z,2.60
2023-05-01T09:11:09.966Z,1.90
2023-05-01T09:12:22.818Z,2.55
2023-05-01T09:13:27.824Z,1.55
2023-05-01T09:14:31.938Z,2.53
2023-05-01T09:15:35.654Z,1.75
2023-05-01T09:16:40.081Z,1.90
2023-05-01T09:17:44.246Z,3.35
2023-05-01T09:18:48.498Z,1.85
2023-05-01T09:19:51.940Z,2.92
2023-05-01T09:20:56.337Z,2.00
2023-05-01T09:21:59.068Z,2.97
2023-05-01T09:23:02.913Z,3.10
2023-05-01T09:24:08.053Z,1.77
2023-05-01T09:25:12.140Z,2.30
2023-05-01T09:26:16.154Z,2.85
2023-05-01T09:27:19.789Z,2.10
2023-05-01T09:28:43.089Z,2.42
2023-05-01T09:29:47.557Z,2.65
2023-05-01T09:30:51.516Z,2.40
2023-05-01T09:31:54.696Z,2.55
2023-05-01T09:33:06.975Z,3.08
2023-05-01T09:34:10.834Z,3.47
2023-05-01T09:35:15.596Z,3.40
2023-05-01T09:36:19.651Z,3.03
2023-05-01T09:37:31.153Z,3.30
2023-05-01T09:38:34.329Z,2.95
2023-05-01T09:39:39.739Z,2.30
2023-05-01T09:40:42.525Z,2.38
2023-05-01T09:41:53.995Z,2.85
2023-05-01T09:42:58.268Z,4.50
2023-05-01T09:44:03.282Z,2.63
2023-05-01T09:45:12.788Z,2.33
2023-05-01T09:46:17.540Z,4.10
2023-05-01T09:47:23.289Z,3.77
2023-05-01T09:48:27.487Z,3.33
2023-05-01T09:49:48.386Z,2.70
2023-05-01T09:50:52.670Z,3.85
2023-05-01T09:52:12.386Z,4.28
2023-05-01T09:53:16.504Z,3.17
2023-05-01T09:54:21.373Z,4.07
2023-05-01T09:55:26.064Z,4.22
2023-05-01T09:56:31.932Z,2.45
2023-05-01T09:57:39.076Z,3.28
2023-05-01T09:58:43.185Z,4.43
2023-05-01T10:00:08.654Z,3.75
2023-05-01T10:01:11.632Z,2.30
2023-05-01T10:02:31.091Z,2.95
2023-05-01T10:03:35.048Z,2.85
2023-05-01T10:04:39.388Z,3.35
2023-05-01T10:05:45.396Z,3.17
2023-05-01T10:06:50.356Z,3.25
2023-05-01T10:07:59.860Z,3.80
2023-05-01T10:09:07.224Z,3.20
2023-05-01T10:10:21.540Z,3.50
2023-05-01T10:11:27.337Z,2.80
2023-05-01T10:12:35.854Z,2.50
2023-05-01T10:13:38.749Z,2.85
2023-05-01T10:14:53.134Z,2.55
2023-05-01T10:15:56.012Z,3.65
2023-05-01T10:17:01.163Z,2.88
2023-05-01T10:18:05.764Z,2.72
2023-05-01T10:19:10.042Z,3.22
2023-05-01T10:20:13.852Z,4.57
2023-05-01T10:21:18.328Z,3.30
2023-05-01T10:22:22.645Z,4.55
2023-05-01T10:23:26.321Z,3.28
2023-05-01T10:24:30.742Z,5.00
2023-05-01T10:25:33.820Z,3.22
2023-05-01T10:26:39.329Z,4.18
2023-05-01T10:27:44.979Z,3.80
2023-05-01T10:28:49.856Z,3.10
2023-05-01T10:29:54.945Z,4.15
2023-05-01T10:30:59.042Z,3.47
2023-05-01T10:32:04.706Z,3.67
2023-05-01T10:33:08.375Z,3.78
2023-05-01T10:34:18.218Z,4.00
2023-05-01T10:35:29.370Z,3.42
2023-05-01T10:36:39.500Z,3.65
2023-05-01T10:37:49.566Z,3.53
2023-05-01T10:38:52.357Z,4.45
2023-05-01T10:39:56.175Z,4.20
2023-05-01T10:40:58.609Z,4.35
2023-05-01T10:42:05.790Z,4.40
2023-05-01T10:43:14.380Z,4.23
2023-05-01T10:44:26.305Z,4.50
2023-05-01T10:45:30.152Z,4.32
2023-05-01T10:46:33.913Z,5.13
2023-05-01T10:47:55.283Z,4.13
2023-05-01T10:48:58.928Z,4.28
2023-05-01T10:50:07.325Z,4.60
2023-05-01T10:51:12.287Z,6.95
2023-05-01T10:52:15.967Z,4.82
2023-05-01T10:53:18.952Z,5.85
2023-05-01T10:54:27.447Z,5.50
2023-05-01T10:55:33.734Z,3.63
2023-05-01T10:56:45.670Z,4.47
2023-05-01T10:57:50.168Z,3.22
2023-05-01T10:59:04.964Z,3.85
2023-05-01T11:00:15.364Z,4.53
2023-05-01T11:01:37.867Z,1.88
2023-05-01T11:02:42.910Z,2.33
2023-05-01T11:03:45.222Z,2.33
2023-05-01T11:04:51.613Z,1.83
2023-05-01T11:06:07.576Z,3.57
2023-05-01T11:07:19.473Z,1.88
2023-05-01T11:08:32.258Z,1.92
2023-05-01T11:09:40.053Z,2.30
2023-05-01T11:10:45.302Z,1.58
2023-05-01T11:11:50.505Z,4.13
2023-05-01T11:12:55.712Z,3.33
2023-05-01T11:13:59.485Z,4.85
2023-05-01T11:15:05.772Z,4.20
2023-05-01T11:16:42.234Z,2.95
2023-05-01T11:17:50.601Z,1.83
2023-05-01T11:18:53.187Z,3.13
2023-05-01T11:19:57.105Z,4.20
2023-05-01T11:21:02.320Z,4.00
2023-05-01T11:22:13.324Z,2.30
2023-05-01T11:23:25.725Z,4.13
2023-05-01T11:24:34.653Z,5.05
2023-05-01T11:25:38.437Z,3.88
2023-05-01T11:26:42.469Z,3.80
2023-05-01T11:27:49.406Z,6.95
2023-05-01T11:28:55.759Z,2.50
2023-05-01T11:30:00.770Z,3.03
2023-05-01T11:31:03.806Z,4.32
2023-05-01T11:32:09.907Z,2.42
2023-05-01T11:33:12.905Z,4.72
2023-05-01T11:34:17.153Z,3.10
2023-05-01T11:35:21.112Z,3.92
2023-05-01T11:36:24.617Z,2.65
2023-05-01T11:37:41.178Z,4.72
2023-05-01T11:38:51.667Z,3.22
2023-05-01T11:39:54.072Z,3.47
2023-05-01T11:41:01.491Z,4.13
2023-05-01T11:42:08.940Z,3.55
2023-05-01T11:43:12.792Z,3.53
2023-05-01T11:44:19.813Z,4.80
2023-05-01T11:45:22.387Z,4.47
2023-05-01T11:46:27.729Z,5.40
2023-05-01T11:47:32.719Z,4.38
2023-05-01T11:48:36.146Z,5.50
2023-05-01T11:49:39.164Z,3.67
2023-05-01T11:50:42.604Z,5.33
2023-05-01T11:51:46.304Z,3.83
2023-05-01T11:52:50.266Z,3.28
2023-05-01T11:54:01.624Z,4.60
2023-05-01T11:55:05.296Z,6.00
2023-05-01T11:56:26.752Z,3.92
2023-05-01T11:57:29.735Z,2.63
2023-05-01T11:58:36.617Z,2.75
2023-05-01T11:59:40.715Z,2.90
2023-05-01T12:00:45.000Z,5.03
2023-05-01T12:01:49.715Z,3.07
2023-05-01T12:02:59.905Z,4.05
2023-05-01T12:04:04.450Z,3.28
2023-05-01T12:05:16.546Z,5.07
2023-05-01T12:06:20.381Z,3.72
2023-05-01T12:07:23.316Z,3.47
2023-05-01T12:08:27.400Z,4.68
2023-05-01T12:09:30.312Z,4.90
2023-05-01T12:10:35.426Z,6.82
2023-05-01T12:11:40.717Z,5.07
2023-05-01T12:12:43.469Z,3.57
2023-05-01T12:13:48.823Z,5.68
2023-05-01T12:14:53.720Z,7.47
2023-05-01T12:15:59.712Z,10.40
2023-05-01T12:17:03.885Z,7.93
2023-05-01T12:18:07.761Z,3.83
2023-05-01T12:19:14.800Z,5.13
2023-05-01T12:20:17.248Z,6.07
2023-05-01T12:21:21.767Z,7.35
2023-05-01T12:22:24.007Z,8.07
2023-05-01T12:23:38.830Z,6.23
2023-05-01T12:24:50.317Z,4.22
2023-05-01T12:25:54.270Z,5.78
2023-05-01T12:27:01.662Z,3.83
2023-05-01T12:28:10.996Z,6.32
2023-05-01T12:29:14.445Z,7.25
2023-05-01T12:30:27.096Z,7.22
2023-05-01T12:31:31.604Z,4.93
2023-05-01T12:32:35.002Z,8.70
2023-05-01T12:33:38.635Z,7.97
2023-05-01T12:34:41.938Z,6.70
2023-05-01T12:35:47.815Z,6.38
2023-05-01T12:36:54.410Z,9.60
2023-05-01T12:37:58.608Z,9.82
2023-05-01T12:39:04.497Z,6.90
2023-05-01T12:40:14.136Z,8.50
2023-05-01T12:41:17.939Z,4.70
2023-05-01T12:42:20.644Z,5.68
2023-05-01T12:43:32.212Z,5.18
2023-05-01T12:44:35.073Z,3.40
2023-05-01T12:45:43.708Z,6.23
2023-05-01T12:46:53.676Z,5.35
2023-05-01T12:47:57.757Z,6.47
2023-05-01T12:49:00.522Z,5.43
2023-05-01T12:50:05.458Z,5.78
2023-05-01T12:51:08.412Z,4.82
2023-05-01T12:52:12.005Z,6.75
2023-05-01T12:53:14.972Z,9.95
2023-05-01T12:54:23.034Z,6.32
2023-05-01T12:55:25.930Z,8.43
2023-05-01T12:56:30.725Z,6.17
2023-05-01T12:57:33.391Z,6.85
2023-05-01T12:58:38.744Z,10.70
2023-05-01T12:59:42.824Z,13.02
2023-05-01T13:00:49.859Z,12.15
2023-05-01T13:02:00.629Z,11.02
2023-05-01T13:03:06.628Z,8.23
2023-05-01T13:04:09.694Z,6.47
2023-05-01T13:05:14.402Z,8.30
2023-05-01T13:06:17.240Z,9.25
2023-05-01T13:07:21.327Z,7.33
2023-05-01T13:08:28.687Z,6.80
2023-05-01T13:09:32.716Z,9.60
2023-05-01T13:10:35.881Z,10.50
2023-05-01T13:11:40.198Z,5.30
2023-05-01T13:12:47.635Z,11.32
2023-05-01T13:13:51.483Z,8.23
2023-05-01T13:14:55.154Z,10.15
2023-05-01T13:16:12.884Z,8.15
2023-05-01T13:17:23.593Z,8.48
2023-05-01T13:18:27.803Z,12.17
2023-05-01T13:19:32.021Z,13.55
2023-05-01T13:20:36.625Z,19.05
2023-05-01T13:21:49.186Z,15.25
2023-05-01T13:22:52.851Z,9.65
2023-05-01T13:23:57.025Z,7.53
2023-05-01T13:25:01.151Z,9.18
2023-05-01T13:26:04.972Z,7.13
2023-05-01T13:27:10.032Z,9.93
2023-05-01T13:28:20.975Z,11.57
2023-05-01T13:29:25.386Z,6.70
2023-05-01T13:30:34.001Z,11.73
2023-05-01T13:31:39.996Z,9.93
2023-05-01T13:32:42.599Z,15.07
2023-05-01T13:33:46.279Z,12.32
2023-05-01T13:34:49.818Z,11.48
2023-05-01T13:35:52.446Z,11.32
2023-05-01T13:36:56.866Z,9.32
2023-05-01T13:37:59.409Z,12.98
2023-05-01T13:39:03.777Z,11.25
2023-05-01T13:40:08.771Z,17.83
2023-05-01T13:41:15.582Z,10.63
2023-05-01T13:42:25.705Z,8.52
2023-05-01T13:43:28.542Z,11.35
2023-05-01T13:44:32.777Z,8.73
2023-05-01T13:45:35.381Z,9.77
2023-05-01T13:46:42.901Z,8.25
2023-05-01T13:47:45.400Z,8.20
2023-05-01T13:48:49.544Z,10.80
2023-05-01T13:49:53.390Z,11.07
2023-05-01T13:50:56.643Z,13.07
2023-05-01T13:52:00.231Z,10.27
2023-05-01T13:53:03.241Z,9.93
2023-05-01T13:54:08.571Z,8.77
2023-05-01T13:55:11.050Z,11.98
2023-05-01T13:56:15.351Z,12.68
2023-05-01T13:57:17.815Z,10.85
2023-05-01T13:58:21.349Z,7.75
2023-05-01T13:59:23.978Z,8.55
2023-05-01T14:00:28.839Z,4.93
2023-05-01T14:01:31.591Z,11.30
2023-05-01T14:02:44.244Z,6.50
2023-05-01T14:03:47.873Z,9.85
2023-05-01T14:04:51.956Z,8.63
2023-05-01T14:05:54.704Z,9.63
2023-05-01T14:07:00.265Z,11.95
2023-05-01T14:08:04.568Z,9.73
2023-05-01T14:09:07.201Z,11.95
2023-05-01T14:10:12.377Z,11.05
2023-05-01T14:11:15.575Z,9.02
2023-05-01T14:12:20.429Z,8.27
2023-05-01T14:13:23.052Z,9.77
2023-05-01T14:14:26.476Z,9.95
2023-05-01T14:15:30.021Z,7.03
2023-05-01T14:16:36.696Z,10.25
2023-05-01T14:17:41.830Z,6.32
2023-05-01T14:18:45.528Z,8.30
2023-05-01T14:19:54.880Z,9.40
2023-05-01T14:21:00.872Z,6.38
2023-05-01T14:22:04.764Z,7.20
2023-05-01T14:23:08.385Z,9.23
2023-05-01T14:24:12.500Z,6.18
2023-05-01T14:25:25.118Z,6.75
2023-05-01T14:26:28.759Z,8.55
2023-05-01T14:27:32.052Z,6.47